DAAE

Details ICAO DAAE (BJA)
Name SOUMMAM
Region Algeria
Timezone Africa/Algiers (UTC+1.0)
Plans Departing 40
Arriving 43
Stats Elevation 20 ft / 6 m (AMSL)
Location 36.711805° 5.069862°
Runways 1
Magnetic Variation 1.445° E
Sunrise 2017-12-14 06:45:40 UTC / 2017-12-14 07:45:40 Local
Sunset 2017-12-14 16:25:55 UTC / 2017-12-14 17:25:55 Local
Advertisement - Login to hide

Runways

ID Width Length Bearing (true) Bearing (mag) Surface Threshold Offset Overrun Length
08 148 ft / 45 m 7,831 ft / 2,387 m 80.31° 78.86° Asphalt 0 ft / 0 m 204 ft / 62 m
26 148 ft / 45 m 7,831 ft / 2,387 m 260.32° 258.87° Asphalt 0 ft / 0 m 113 ft / 34 m

Approach Navaids

Runway Type Ident Frequency Range Bearing (true) Bearing (mag) Slope Elevation
26 Localiser BJ 110.50 MHz 18 nm / 33 km 261.39° 259.95° - 20 ft / 6 m (AMSL)
26 DME BJ 110.50 MHz 18 nm / 33 km - - - 20 ft / 6 m (AMSL)

Map

Weather


0- 5 10 15 20 25 30 35+ Temperature / ° C

Clouds and Precipitation
Forecast for 2017-12-14 18:00 UTC. Updated 32 minutes ago

Ground ~20,000 ft ~40,000 ft Winds

METAR

DAAE 141300Z 10002KT CAVOK 19/03 Q1021

TAF

TAF DAAE 141100Z 1412/1512 26018KT 9999 FEW026 BECMG 1422/1424 12006KT PROB40 TEMPO 1502/1508 2000 BR BKN010 BECMG 1509/1511 24014KT

Frequencies

Tower 118.90 MHz BEJAIA TWR
Tower 119.70 MHz BEJAIA TWR
Warning: Do not use this data for real-world aviation or navigation. No guarantee of current accuracy is given.